sensor_id;sensor_type;location;lat;lon;timestamp;temperature;humidity
22676;DHT22;12521;43.310;21.876;2022-09-19T00:02:53;9.0;96.0
22676;DHT22;12521;43.310;21.876;2022-09-19T00:07:30;9.0;96.0
22676;DHT22;12521;43.310;21.876;2022-09-19T00:12:07;9.0;96.0
22676;DHT22;12521;43.310;21.876;2022-09-19T00:16:47;9.0;96.0
22676;DHT22;12521;43.310;21.876;2022-09-19T00:21:32;8.9;96.0
22676;DHT22;12521;43.310;21.876;2022-09-19T00:26:18;8.9;96.0
22676;DHT22;12521;43.310;21.876;2022-09-19T00:30:57;8.9;96.0
22676;DHT22;12521;43.310;21.876;2022-09-19T00:35:35;8.9;96.0
22676;DHT22;12521;43.310;21.876;2022-09-19T00:40:12;8.8;96.0
22676;DHT22;12521;43.310;21.876;2022-09-19T00:45:00;8.8;96.0
22676;DHT22;12521;43.310;21.876;2022-09-19T00:49:51;8.8;96.0
22676;DHT22;12521;43.310;21.876;2022-09-19T00:54:46;8.8;96.0
22676;DHT22;12521;43.310;21.876;2022-09-19T00:59:36;8.7;96.0
22676;DHT22;12521;43.310;21.876;2022-09-19T01:04:25;8.7;96.0
22676;DHT22;12521;43.310;21.876;2022-09-19T01:09:39;8.6;96.0
22676;DHT22;12521;43.310;21.876;2022-09-19T01:15:12;8.6;96.0
22676;DHT22;12521;43.310;21.876;2022-09-19T01:21:18;8.4;96.0
22676;DHT22;12521;43.310;21.876;2022-09-19T01:26:50;8.4;96.0
22676;DHT22;12521;43.310;21.876;2022-09-19T01:32:01;8.4;96.0
22676;DHT22;12521;43.310;21.876;2022-09-19T01:36:55;8.4;96.0
22676;DHT22;12521;43.310;21.876;2022-09-19T01:41:48;8.3;96.0
22676;DHT22;12521;43.310;21.876;2022-09-19T01:46:55;8.3;96.0
22676;DHT22;12521;43.310;21.876;2022-09-19T01:52:27;8.3;96.0
22676;DHT22;12521;43.310;21.876;2022-09-19T01:58:02;8.3;96.0
22676;DHT22;12521;43.310;21.876;2022-09-19T02:03:23;8.3;96.0
22676;DHT22;12521;43.310;21.876;2022-09-19T02:08:36;8.3;96.0
22676;DHT22;12521;43.310;21.876;2022-09-19T02:13:36;8.2;96.0
22676;DHT22;12521;43.310;21.876;2022-09-19T02:18:37;8.2;96.0
22676;DHT22;12521;43.310;21.876;2022-09-19T02:23:38;8.2;96.0
22676;DHT22;12521;43.310;21.876;2022-09-19T02:28:38;8.2;96.0
22676;DHT22;12521;43.310;21.876;2022-09-19T02:33:26;8.1;96.0
22676;DHT22;12521;43.310;21.876;2022-09-19T02:38:26;8.1;96.0
22676;DHT22;12521;43.310;21.876;2022-09-19T02:43:44;8.1;96.0
22676;DHT22;12521;43.310;21.876;2022-09-19T02:48:59;8.1;96.0
22676;DHT22;12521;43.310;21.876;2022-09-19T02:53:58;8.0;96.0
22676;DHT22;12521;43.310;21.876;2022-09-19T02:59:02;8.0;96.0
22676;DHT22;12521;43.310;21.876;2022-09-19T03:03:56;8.0;96.0
22676;DHT22;12521;43.310;21.876;2022-09-19T03:08:54;8.0;96.0
22676;DHT22;12521;43.310;21.876;2022-09-19T03:13:38;8.0;96.0
22676;DHT22;12521;43.310;21.876;2022-09-19T03:18:21;8.0;96.0
22676;DHT22;12521;43.310;21.876;2022-09-19T03:23:06;8.0;96.0
22676;DHT22;12521;43.310;21.876;2022-09-19T03:27:44;8.0;96.0
22676;DHT22;12521;43.310;21.876;2022-09-19T03:32:21;7.9;96.0
22676;DHT22;12521;43.310;21.876;2022-09-19T03:36:57;7.9;96.0
22676;DHT22;12521;43.310;21.876;2022-09-19T03:41:33;7.8;96.0
22676;DHT22;12521;43.310;21.876;2022-09-19T03:46:12;7.8;96.0
22676;DHT22;12521;43.310;21.876;2022-09-19T03:50:52;7.7;96.0
22676;DHT22;12521;43.310;21.876;2022-09-19T03:55:29;7.7;96.0
22676;DHT22;12521;43.310;21.876;2022-09-19T04:00:08;7.6;96.0
22676;DHT22;12521;43.310;21.876;2022-09-19T04:04:47;7.6;96.0
22676;DHT22;12521;43.310;21.876;2022-09-19T04:09:24;7.6;96.0
22676;DHT22;12521;43.310;21.876;2022-09-19T04:14:00;7.6;96.0
22676;DHT22;12521;43.310;21.876;2022-09-19T04:18:36;7.6;96.0
22676;DHT22;12521;43.310;21.876;2022-09-19T04:23:13;7.5;96.0
22676;DHT22;12521;43.310;21.876;2022-09-19T04:27:49;7.5;96.0
22676;DHT22;12521;43.310;21.876;2022-09-19T04:32:26;7.5;96.0
22676;DHT22;12521;43.310;21.876;2022-09-19T04:37:03;7.5;96.0
22676;DHT22;12521;43.310;21.876;2022-09-19T04:41:41;7.5;96.0
22676;DHT22;12521;43.310;21.876;2022-09-19T04:46:17;7.5;96.0
22676;DHT22;12521;43.310;21.876;2022-09-19T04:50:54;7.4;96.0
22676;DHT22;12521;43.310;21.876;2022-09-19T04:55:31;7.4;96.0
22676;DHT22;12521;43.310;21.876;2022-09-19T05:00:10;7.4;96.0
22676;DHT22;12521;43.310;21.876;2022-09-19T05:04:48;7.4;96.0
22676;DHT22;12521;43.310;21.876;2022-09-19T05:09:25;7.4;96.0
22676;DHT22;12521;43.310;21.876;2022-09-19T05:14:01;7.5;96.0
22676;DHT22;12521;43.310;21.876;2022-09-19T05:18:38;7.5;96.0
22676;DHT22;12521;43.310;21.876;2022-09-19T05:23:16;7.6;96.0
22676;DHT22;12521;43.310;21.876;2022-09-19T05:27:53;7.6;96.0
22676;DHT22;12521;43.310;21.876;2022-09-19T05:32:32;7.8;96.0
22676;DHT22;12521;43.310;21.876;2022-09-19T05:37:08;7.8;96.0
22676;DHT22;12521;43.310;21.876;2022-09-19T05:41:44;8.0;96.0
22676;DHT22;12521;43.310;21.876;2022-09-19T05:46:21;8.0;96.0
22676;DHT22;12521;43.310;21.876;2022-09-19T05:50:57;8.2;96.0
22676;DHT22;12521;43.310;21.876;2022-09-19T05:55:34;8.2;96.0
22676;DHT22;12521;43.310;21.876;2022-09-19T06:00:13;8.3;96.0
22676;DHT22;12521;43.310;21.876;2022-09-19T06:04:51;8.3;96.0
22676;DHT22;12521;43.310;21.876;2022-09-19T06:09:27;8.3;96.0
22676;DHT22;12521;43.310;21.876;2022-09-19T06:14:04;8.4;96.0
22676;DHT22;12521;43.310;21.876;2022-09-19T06:18:41;8.4;96.0
22676;DHT22;12521;43.310;21.876;2022-09-19T06:23:17;8.5;96.0
22676;DHT22;12521;43.310;21.876;2022-09-19T06:27:55;8.5;96.0
22676;DHT22;12521;43.310;21.876;2022-09-19T06:32:38;8.8;96.0
22676;DHT22;12521;43.310;21.876;2022-09-19T06:37:15;8.8;96.0
22676;DHT22;12521;43.310;21.876;2022-09-19T06:41:51;9.2;96.0
22676;DHT22;12521;43.310;21.876;2022-09-19T06:46:30;9.2;96.0
22676;DHT22;12521;43.310;21.876;2022-09-19T06:51:07;9.6;96.0
22676;DHT22;12521;43.310;21.876;2022-09-19T06:55:44;9.6;96.0
22676;DHT22;12521;43.310;21.876;2022-09-19T07:00:22;9.9;96.0
22676;DHT22;12521;43.310;21.876;2022-09-19T07:05:06;9.9;96.0
22676;DHT22;12521;43.310;21.876;2022-09-19T07:09:43;10.0;96.0
22676;DHT22;12521;43.310;21.876;2022-09-19T07:14:20;10.0;96.0
22676;DHT22;12521;43.310;21.876;2022-09-19T07:18:57;10.0;96.0
22676;DHT22;12521;43.310;21.876;2022-09-19T07:23:33;10.1;96.0
22676;DHT22;12521;43.310;21.876;2022-09-19T07:28:13;10.1;96.0
22676;DHT22;12521;43.310;21.876;2022-09-19T07:32:55;10.4;96.0
22676;DHT22;12521;43.310;21.876;2022-09-19T07:37:35;10.4;96.0
22676;DHT22;12521;43.310;21.876;2022-09-19T07:42:12;10.8;96.0
22676;DHT22;12521;43.310;21.876;2022-09-19T07:46:50;10.8;96.0
22676;DHT22;12521;43.310;21.876;2022-09-19T07:51:26;11.3;96.0
22676;DHT22;12521;43.310;21.876;2022-09-19T07:56:04;11.3;96.0
22676;DHT22;12521;43.310;21.876;2022-09-19T08:00:41;11.8;96.0
22676;DHT22;12521;43.310;21.876;2022-09-19T08:05:17;11.8;96.0
22676;DHT22;12521;43.310;21.876;2022-09-19T08:09:54;12.4;96.0
22676;DHT22;12521;43.310;21.876;2022-09-19T08:14:30;12.4;96.0
22676;DHT22;12521;43.310;21.876;2022-09-19T08:19:06;12.4;96.0
22676;DHT22;12521;43.310;21.876;2022-09-19T08:23:44;12.9;96.0
22676;DHT22;12521;43.310;21.876;2022-09-19T08:28:21;12.9;96.0
22676;DHT22;12521;43.310;21.876;2022-09-19T08:32:58;13.4;96.0
22676;DHT22;12521;43.310;21.876;2022-09-19T08:37:36;13.4;96.0
22676;DHT22;12521;43.310;21.876;2022-09-19T08:42:27;14.0;96.0
22676;DHT22;12521;43.310;21.876;2022-09-19T08:47:31;14.0;96.0
22676;DHT22;12521;43.310;21.876;2022-09-19T08:52:33;14.6;96.0
22676;DHT22;12521;43.310;21.876;2022-09-19T08:57:28;14.6;96.0
22676;DHT22;12521;43.310;21.876;2022-09-19T09:02:32;15.1;96.0
22676;DHT22;12521;43.310;21.876;2022-09-19T09:07:50;15.1;96.0
22676;DHT22;12521;43.310;21.876;2022-09-19T09:13:05;15.6;96.0
22676;DHT22;12521;43.310;21.876;2022-09-19T09:18:44;15.6;96.0
22676;DHT22;12521;43.310;21.876;2022-09-19T09:24:09;16.0;96.0
22676;DHT22;12521;43.310;21.876;2022-09-19T09:29:15;16.0;96.0
22676;DHT22;12521;43.310;21.876;2022-09-19T09:34:14;16.8;96.0
22676;DHT22;12521;43.310;21.876;2022-09-19T09:39:16;16.8;96.0
22676;DHT22;12521;43.310;21.876;2022-09-19T09:44:29;17.7;96.0
22676;DHT22;12521;43.310;21.876;2022-09-19T09:49:33;17.7;96.0
22676;DHT22;12521;43.310;21.876;2022-09-19T09:54:33;18.4;95.0
22676;DHT22;12521;43.310;21.876;2022-09-19T10:00:00;19.0;94.0
22676;DHT22;12521;43.310;21.876;2022-09-19T10:04:58;19.0;94.0
22676;DHT22;12521;43.310;21.876;2022-09-19T10:09:57;19.3;92.0
22676;DHT22;12521;43.310;21.876;2022-09-19T10:14:51;19.3;92.0
22676;DHT22;12521;43.310;21.876;2022-09-19T10:19:42;19.3;92.0
22676;DHT22;12521;43.310;21.876;2022-09-19T10:24:46;19.6;90.0
22676;DHT22;12521;43.310;21.876;2022-09-19T10:29:25;19.6;90.0
22676;DHT22;12521;43.310;21.876;2022-09-19T10:34:04;19.8;88.0
22676;DHT22;12521;43.310;21.876;2022-09-19T10:39:13;19.8;88.0
22676;DHT22;12521;43.310;21.876;2022-09-19T10:43:55;20.1;87.0
22676;DHT22;12521;43.310;21.876;2022-09-19T10:48:41;20.1;87.0
22676;DHT22;12521;43.310;21.876;2022-09-19T10:53:33;20.5;86.0
22676;DHT22;12521;43.310;21.876;2022-09-19T10:58:19;20.5;86.0
22676;DHT22;12521;43.310;21.876;2022-09-19T11:03:16;20.8;85.0
22676;DHT22;12521;43.310;21.876;2022-09-19T11:08:00;20.8;85.0
22676;DHT22;12521;43.310;21.876;2022-09-19T11:13:06;21.2;85.0
22676;DHT22;12521;43.310;21.876;2022-09-19T11:18:09;21.2;85.0
22676;DHT22;12521;43.310;21.876;2022-09-19T11:23:51;21.5;84.0
22676;DHT22;12521;43.310;21.876;2022-09-19T11:29:34;21.5;84.0
22676;DHT22;12521;43.310;21.876;2022-09-19T11:34:58;21.8;83.0
22676;DHT22;12521;43.310;21.876;2022-09-19T11:40:29;22.0;82.0
22676;DHT22;12521;43.310;21.876;2022-09-19T11:45:55;22.0;82.0
22676;DHT22;12521;43.310;21.876;2022-09-19T11:51:14;22.3;82.0
22676;DHT22;12521;43.310;21.876;2022-09-19T11:56:44;22.3;82.0
22676;DHT22;12521;43.310;21.876;2022-09-19T12:02:18;22.6;81.0
22676;DHT22;12521;43.310;21.876;2022-09-19T12:07:54;22.6;81.0
22676;DHT22;12521;43.310;21.876;2022-09-19T12:13:23;22.5;81.0
22676;DHT22;12521;43.310;21.876;2022-09-19T12:18:24;22.5;81.0
22676;DHT22;12521;43.310;21.876;2022-09-19T12:23:29;22.3;81.0
22676;DHT22;12521;43.310;21.876;2022-09-19T12:28:36;22.3;81.0
22676;DHT22;12521;43.310;21.876;2022-09-19T12:33:43;22.5;80.0
22676;DHT22;12521;43.310;21.876;2022-09-19T12:38:49;22.5;80.0
22676;DHT22;12521;43.310;21.876;2022-09-19T12:44:03;22.7;80.0
22676;DHT22;12521;43.310;21.876;2022-09-19T12:49:24;22.7;80.0
22676;DHT22;12521;43.310;21.876;2022-09-19T12:54:42;23.0;78.0
22676;DHT22;12521;43.310;21.876;2022-09-19T12:59:52;23.4;77.0
22676;DHT22;12521;43.310;21.876;2022-09-19T13:04:42;23.4;77.0
22676;DHT22;12521;43.310;21.876;2022-09-19T13:09:32;23.4;77.0
22676;DHT22;12521;43.310;21.876;2022-09-19T13:14:42;23.4;76.0
22676;DHT22;12521;43.310;21.876;2022-09-19T13:19:38;23.4;76.0
22676;DHT22;12521;43.310;21.876;2022-09-19T13:24:20;23.4;75.0
22676;DHT22;12521;43.310;21.876;2022-09-19T13:29:01;23.4;75.0
22676;DHT22;12521;43.310;21.876;2022-09-19T13:33:49;23.3;75.0
22676;DHT22;12521;43.310;21.876;2022-09-19T13:38:39;23.3;75.0
22676;DHT22;12521;43.310;21.876;2022-09-19T13:43:37;23.2;75.0
22676;DHT22;12521;43.310;21.876;2022-09-19T13:48:49;23.2;75.0
22676;DHT22;12521;43.310;21.876;2022-09-19T13:53:44;21.5;78.0
22676;DHT22;12521;43.310;21.876;2022-09-19T13:59:18;21.5;78.0
22676;DHT22;12521;43.310;21.876;2022-09-19T14:04:03;19.8;81.0
22676;DHT22;12521;43.310;21.876;2022-09-19T14:08:40;19.8;81.0
22676;DHT22;12521;43.310;21.876;2022-09-19T14:13:36;18.8;84.0
22676;DHT22;12521;43.310;21.876;2022-09-19T14:18:42;18.8;84.0
22676;DHT22;12521;43.310;21.876;2022-09-19T14:23:30;17.7;88.0
22676;DHT22;12521;43.310;21.876;2022-09-19T14:28:45;17.7;88.0
22676;DHT22;12521;43.310;21.876;2022-09-19T14:34:53;17.4;89.0
22676;DHT22;12521;43.310;21.876;2022-09-19T14:40:21;17.0;90.0
22676;DHT22;12521;43.310;21.876;2022-09-19T14:45:30;17.0;90.0
22676;DHT22;12521;43.310;21.876;2022-09-19T14:50:51;16.7;91.0
22676;DHT22;12521;43.310;21.876;2022-09-19T14:55:45;16.7;91.0
22676;DHT22;12521;43.310;21.876;2022-09-19T15:00:31;16.4;92.0
22676;DHT22;12521;43.310;21.876;2022-09-19T15:05:19;16.4;92.0
22676;DHT22;12521;43.310;21.876;2022-09-19T15:10:29;16.0;94.0
22676;DHT22;12521;43.310;21.876;2022-09-19T15:15:15;16.0;94.0
22676;DHT22;12521;43.310;21.876;2022-09-19T15:19:58;16.0;94.0
22676;DHT22;12521;43.310;21.876;2022-09-19T15:24:52;15.7;95.0
22676;DHT22;12521;43.310;21.876;2022-09-19T15:29:35;15.7;95.0
22676;DHT22;12521;43.310;21.876;2022-09-19T15:34:17;15.4;96.0
22676;DHT22;12521;43.310;21.876;2022-09-19T15:38:56;15.4;96.0
22676;DHT22;12521;43.310;21.876;2022-09-19T15:43:44;15.0;96.0
22676;DHT22;12521;43.310;21.876;2022-09-19T15:48:29;15.0;96.0
22676;DHT22;12521;43.310;21.876;2022-09-19T15:53:34;14.7;96.0
22676;DHT22;12521;43.310;21.876;2022-09-19T15:58:20;14.7;96.0
22676;DHT22;12521;43.310;21.876;2022-09-19T16:03:19;14.4;96.0
22676;DHT22;12521;43.310;21.876;2022-09-19T16:08:02;14.4;96.0
22676;DHT22;12521;43.310;21.876;2022-09-19T16:12:58;14.1;96.0
22676;DHT22;12521;43.310;21.876;2022-09-19T16:18:47;14.1;96.0
22676;DHT22;12521;43.310;21.876;2022-09-19T16:23:26;13.8;96.0
22676;DHT22;12521;43.310;21.876;2022-09-19T16:28:29;13.8;96.0
22676;DHT22;12521;43.310;21.876;2022-09-19T16:33:15;13.4;96.0
22676;DHT22;12521;43.310;21.876;2022-09-19T16:37:52;13.4;96.0
22676;DHT22;12521;43.310;21.876;2022-09-19T16:42:33;13.1;96.0
22676;DHT22;12521;43.310;21.876;2022-09-19T16:47:16;13.1;96.0
22676;DHT22;12521;43.310;21.876;2022-09-19T16:52:00;12.8;96.0
22676;DHT22;12521;43.310;21.876;2022-09-19T16:56:41;12.8;96.0
22676;DHT22;12521;43.310;21.876;2022-09-19T17:01:17;12.4;96.0
22676;DHT22;12521;43.310;21.876;2022-09-19T17:05:55;12.4;96.0
22676;DHT22;12521;43.310;21.876;2022-09-19T17:10:35;12.3;96.0
22676;DHT22;12521;43.310;21.876;2022-09-19T17:15:32;12.3;96.0
22676;DHT22;12521;43.310;21.876;2022-09-19T17:20:18;12.2;96.0
22676;DHT22;12521;43.310;21.876;2022-09-19T17:24:54;12.2;96.0
22676;DHT22;12521;43.310;21.876;2022-09-19T17:29:31;12.2;96.0
22676;DHT22;12521;43.310;21.876;2022-09-19T17:34:09;12.2;96.0
22676;DHT22;12521;43.310;21.876;2022-09-19T17:38:52;12.2;96.0
22676;DHT22;12521;43.310;21.876;2022-09-19T17:43:29;12.2;96.0
22676;DHT22;12521;43.310;21.876;2022-09-19T17:48:09;12.2;96.0
22676;DHT22;12521;43.310;21.876;2022-09-19T17:52:53;12.2;96.0
22676;DHT22;12521;43.310;21.876;2022-09-19T17:57:30;12.2;96.0
22676;DHT22;12521;43.310;21.876;2022-09-19T18:02:07;12.2;96.0
22676;DHT22;12521;43.310;21.876;2022-09-19T18:06:44;12.2;96.0
22676;DHT22;12521;43.310;21.876;2022-09-19T18:11:21;12.3;96.0
22676;DHT22;12521;43.310;21.876;2022-09-19T18:15:57;12.3;96.0
22676;DHT22;12521;43.310;21.876;2022-09-19T18:20:34;12.4;96.0
22676;DHT22;12521;43.310;21.876;2022-09-19T18:25:10;12.4;96.0
22676;DHT22;12521;43.310;21.876;2022-09-19T18:29:48;12.4;96.0
22676;DHT22;12521;43.310;21.876;2022-09-19T18:34:25;12.4;96.0
22676;DHT22;12521;43.310;21.876;2022-09-19T18:39:03;12.4;96.0
22676;DHT22;12521;43.310;21.876;2022-09-19T18:43:41;12.4;96.0
22676;DHT22;12521;43.310;21.876;2022-09-19T18:48:18;12.4;96.0
22676;DHT22;12521;43.310;21.876;2022-09-19T18:52:54;12.4;96.0
22676;DHT22;12521;43.310;21.876;2022-09-19T18:57:30;12.4;96.0
22676;DHT22;12521;43.310;21.876;2022-09-19T19:02:09;12.5;96.0
22676;DHT22;12521;43.310;21.876;2022-09-19T19:06:47;12.5;96.0
22676;DHT22;12521;43.310;21.876;2022-09-19T19:11:27;12.4;96.0
22676;DHT22;12521;43.310;21.876;2022-09-19T19:16:11;12.4;96.0
22676;DHT22;12521;43.310;21.876;2022-09-19T19:20:54;12.4;96.0
22676;DHT22;12521;43.310;21.876;2022-09-19T19:25:30;12.4;96.0
22676;DHT22;12521;43.310;21.876;2022-09-19T19:30:08;12.4;96.0
22676;DHT22;12521;43.310;21.876;2022-09-19T19:34:47;12.2;96.0
22676;DHT22;12521;43.310;21.876;2022-09-19T19:39:24;12.2;96.0
22676;DHT22;12521;43.310;21.876;2022-09-19T19:44:01;12.1;96.0
22676;DHT22;12521;43.310;21.876;2022-09-19T19:48:39;12.1;96.0
22676;DHT22;12521;43.310;21.876;2022-09-19T19:53:17;12.1;96.0
22676;DHT22;12521;43.310;21.876;2022-09-19T19:57:53;12.1;96.0
22676;DHT22;12521;43.310;21.876;2022-09-19T20:02:30;12.1;96.0
22676;DHT22;12521;43.310;21.876;2022-09-19T20:07:07;12.1;96.0
22676;DHT22;12521;43.310;21.876;2022-09-19T20:11:44;12.0;96.0
22676;DHT22;12521;43.310;21.876;2022-09-19T20:16:24;12.0;96.0
22676;DHT22;12521;43.310;21.876;2022-09-19T20:21:13;11.9;96.0
22676;DHT22;12521;43.310;21.876;2022-09-19T20:25:59;11.9;96.0
22676;DHT22;12521;43.310;21.876;2022-09-19T20:30:37;11.8;96.0
22676;DHT22;12521;43.310;21.876;2022-09-19T20:35:15;11.8;96.0
22676;DHT22;12521;43.310;21.876;2022-09-19T20:39:52;11.8;96.0
22676;DHT22;12521;43.310;21.876;2022-09-19T20:44:29;11.7;96.0
22676;DHT22;12521;43.310;21.876;2022-09-19T20:49:06;11.7;96.0
22676;DHT22;12521;43.310;21.876;2022-09-19T20:53:43;11.6;96.0
22676;DHT22;12521;43.310;21.876;2022-09-19T20:58:21;11.6;96.0
22676;DHT22;12521;43.310;21.876;2022-09-19T21:02:57;11.5;96.0
22676;DHT22;12521;43.310;21.876;2022-09-19T21:07:34;11.5;96.0
22676;DHT22;12521;43.310;21.876;2022-09-19T21:12:10;11.5;96.0
22676;DHT22;12521;43.310;21.876;2022-09-19T21:16:47;11.5;96.0
22676;DHT22;12521;43.310;21.876;2022-09-19T21:21:27;11.5;96.0
22676;DHT22;12521;43.310;21.876;2022-09-19T21:26:12;11.5;96.0
22676;DHT22;12521;43.310;21.876;2022-09-19T21:30:53;11.4;96.0
22676;DHT22;12521;43.310;21.876;2022-09-19T21:35:30;11.4;96.0
22676;DHT22;12521;43.310;21.876;2022-09-19T21:40:08;11.4;96.0
22676;DHT22;12521;43.310;21.876;2022-09-19T21:44:45;11.4;96.0
22676;DHT22;12521;43.310;21.876;2022-09-19T21:49:22;11.4;96.0
22676;DHT22;12521;43.310;21.876;2022-09-19T21:54:01;11.4;96.0
22676;DHT22;12521;43.310;21.876;2022-09-19T21:58:43;11.4;96.0
22676;DHT22;12521;43.310;21.876;2022-09-19T22:03:21;11.5;96.0
22676;DHT22;12521;43.310;21.876;2022-09-19T22:07:57;11.5;96.0
22676;DHT22;12521;43.310;21.876;2022-09-19T22:12:34;11.5;96.0
22676;DHT22;12521;43.310;21.876;2022-09-19T22:17:10;11.5;96.0
22676;DHT22;12521;43.310;21.876;2022-09-19T22:21:47;11.5;96.0
22676;DHT22;12521;43.310;21.876;2022-09-19T22:26:26;11.5;96.0
22676;DHT22;12521;43.310;21.876;2022-09-19T22:31:09;11.4;96.0
22676;DHT22;12521;43.310;21.876;2022-09-19T22:35:50;11.4;96.0
22676;DHT22;12521;43.310;21.876;2022-09-19T22:40:27;11.4;96.0
22676;DHT22;12521;43.310;21.876;2022-09-19T22:45:05;11.4;96.0
22676;DHT22;12521;43.310;21.876;2022-09-19T22:49:44;11.4;96.0
22676;DHT22;12521;43.310;21.876;2022-09-19T22:54:21;11.4;96.0
22676;DHT22;12521;43.310;21.876;2022-09-19T22:59:01;11.4;96.0
22676;DHT22;12521;43.310;21.876;2022-09-19T23:03:40;11.3;96.0
22676;DHT22;12521;43.310;21.876;2022-09-19T23:08:19;11.3;96.0
22676;DHT22;12521;43.310;21.876;2022-09-19T23:12:55;11.2;96.0
22676;DHT22;12521;43.310;21.876;2022-09-19T23:17:32;11.2;96.0
22676;DHT22;12521;43.310;21.876;2022-09-19T23:22:10;11.1;96.0
22676;DHT22;12521;43.310;21.876;2022-09-19T23:26:47;11.1;96.0
22676;DHT22;12521;43.310;21.876;2022-09-19T23:31:26;11.0;96.0
22676;DHT22;12521;43.310;21.876;2022-09-19T23:36:08;11.0;96.0
22676;DHT22;12521;43.310;21.876;2022-09-19T23:40:58;10.9;96.0
22676;DHT22;12521;43.310;21.876;2022-09-19T23:45:38;10.9;96.0
22676;DHT22;12521;43.310;21.876;2022-09-19T23:50:14;10.9;96.0
22676;DHT22;12521;43.310;21.876;2022-09-19T23:54:51;10.9;96.0
22676;DHT22;12521;43.310;21.876;2022-09-19T23:59:27;10.9;96.0
